Time;durP1;ratioP1;P1;durP2;ratioP2;P2;SDS_P1;SDS_P2;PMS_P1;PMS_P2;Temp;Humidity;BMP_temperature;BMP_pressure;BME280_temperature;BME280_humidity;BME280_pressure;Samples;Min_cycle;Max_cycle;Signal;HPM_P1;HPM_P2
2022/08/31 00:06:14;;;;;;;11.05;4.97;;;;;;;26.64;43.95;98562.50;5030220;28;20511;-76
2022/08/31 00:08:39;;;;;;;11.57;5.40;;;;;;;26.57;43.94;98556.44;5031029;28;20029;-77
2022/08/31 00:11:08;;;;;;;10.30;4.93;;;;;;;26.54;43.90;98551.53;4997641;28;20046;-77
2022/08/31 00:13:34;;;;;;;11.00;5.90;;;;;;;26.54;44.34;98554.22;5014284;28;20028;-76
2022/08/31 00:15:59;;;;;;;11.32;5.28;;;;;;;26.48;44.14;98555.13;5013544;28;20053;-77
2022/08/31 00:18:25;;;;;;;9.88;5.20;;;;;;;26.45;44.21;98550.22;5030991;28;20500;-77
2022/08/31 00:20:50;;;;;;;15.50;5.50;;;;;;;26.44;44.20;98545.88;5034071;28;20115;-78
2022/08/31 00:23:16;;;;;;;14.30;5.30;;;;;;;26.49;44.44;98560.25;5034018;28;20025;-75
2022/08/31 00:25:43;;;;;;;12.07;5.13;;;;;;;26.47;44.39;98556.16;5033969;28;20477;-78
2022/08/31 00:28:09;;;;;;;11.67;5.20;;;;;;;26.40;44.02;98545.53;5017607;28;20456;-76
2022/08/31 00:30:34;;;;;;;11.85;5.25;;;;;;;26.40;44.16;98548.22;5017420;28;20098;-79
2022/08/31 00:33:00;;;;;;;10.93;5.30;;;;;;;26.39;44.29;98551.09;5017427;28;20033;-78
2022/08/31 00:35:27;;;;;;;9.45;5.15;;;;;;;26.36;44.44;98555.03;5017331;28;20039;-77
2022/08/31 00:37:52;;;;;;;8.52;5.03;;;;;;;26.36;44.19;98547.00;5000754;28;20112;-76
2022/08/31 00:40:18;;;;;;;13.82;5.47;;;;;;;26.43;44.22;98557.66;5017018;28;20464;-76
2022/08/31 00:42:43;;;;;;;14.40;5.45;;;;;;;26.42;44.57;98558.69;5000306;28;20043;-78
2022/08/31 00:45:09;;;;;;;9.75;4.78;;;;;;;26.38;44.50;98558.31;5034892;28;20056;-77
2022/08/31 00:47:34;;;;;;;13.05;5.03;;;;;;;26.37;44.61;98562.03;5017389;28;20032;-76
2022/08/31 00:50:00;;;;;;;13.75;5.13;;;;;;;26.39;44.19;98553.78;5033394;28;20033;-78
2022/08/31 00:52:29;;;;;;;12.15;5.07;;;;;;;26.29;44.37;98548.97;5016910;28;20056;-78
2022/08/31 00:55:00;;;;;;;13.10;5.40;;;;;;;26.33;44.59;98556.31;5017242;28;20517;-78
2022/08/31 00:57:29;;;;;;;12.20;5.43;;;;;;;26.30;44.62;98551.41;5000773;28;20033;-77
2022/08/31 00:59:54;;;;;;;11.60;5.25;;;;;;;26.23;44.22;98550.66;5000862;28;20417;-74
2022/08/31 01:02:20;;;;;;;11.70;5.30;;;;;;;26.26;44.33;98555.56;5016158;28;20057;-74
2022/08/31 01:04:45;;;;;;;9.60;5.20;;;;;;;26.29;44.76;98551.63;5033149;28;20030;-76
2022/08/31 01:07:11;;;;;;;9.32;5.20;;;;;;;26.30;44.45;98550.59;5016816;28;20115;-73
2022/08/31 01:09:39;;;;;;;11.25;5.60;;;;;;;26.23;44.38;98539.97;5032958;28;20555;-74
2022/08/31 01:12:04;;;;;;;;;;;;;;;26.25;44.13;98545.09;5016814;28;20544;-75
2022/08/31 01:14:30;;;;;;;9.43;4.88;;;;;;;26.19;44.53;98549.50;5033036;28;20009;-77
2022/08/31 01:16:55;;;;;;;15.80;5.07;;;;;;;26.15;44.60;98540.25;5016219;28;20029;-85
2022/08/31 01:19:53;;;;;;;10.23;5.35;;;;;;;26.10;44.87;98535.59;5000742;28;20520;-91
2022/08/31 01:22:25;;;;;;;;;;;;;;;25.98;45.21;98534.69;4994523;28;20093;-90
2022/08/31 01:24:50;;;;;;;9.90;5.40;;;;;;;25.88;45.15;98535.16;4961824;28;19917;-93
2022/08/31 01:27:19;;;;;;;11.07;5.30;;;;;;;25.91;45.20;98528.56;4979234;28;20437;-93
2022/08/31 01:29:44;;;;;;;13.13;5.43;;;;;;;25.95;45.34;98527.06;4979511;28;20049;-94
2022/08/31 01:32:10;;;;;;;11.20;5.47;;;;;;;25.95;45.21;98527.91;4963379;28;20042;-94
2022/08/31 01:34:35;;;;;;;12.75;5.88;;;;;;;25.91;45.23;98518.69;4962462;28;20049;-94
2022/08/31 01:37:01;;;;;;;10.00;5.85;;;;;;;25.91;45.07;98523.22;4995169;28;20042;-95
2022/08/31 01:39:27;;;;;;;10.35;5.30;;;;;;;25.79;45.52;98523.13;4962773;28;20038;-94
2022/08/31 01:41:52;;;;;;;10.60;5.35;;;;;;;25.76;45.50;98516.38;4962508;28;20066;-94
2022/08/31 01:44:20;;;;;;;11.30;5.30;;;;;;;25.80;45.74;98528.25;4978720;28;20041;-93
2022/08/31 01:46:45;;;;;;;12.23;5.70;;;;;;;25.86;45.46;98525.75;4963109;28;20170;-92
2022/08/31 01:49:11;;;;;;;11.80;5.10;;;;;;;25.85;45.58;98532.94;4976392;28;20628;-93
2022/08/31 01:51:37;;;;;;;9.55;5.25;;;;;;;25.88;45.35;98521.78;4974304;28;20042;-91
2022/08/31 01:54:03;;;;;;;10.25;5.20;;;;;;;25.88;45.26;98529.00;4965267;28;20419;-91
2022/08/31 01:56:34;;;;;;;12.40;5.53;;;;;;;25.89;45.13;98536.00;4979704;28;20085;-93
2022/08/31 01:58:59;;;;;;;10.18;5.50;;;;;;;25.84;45.23;98539.34;4998273;28;20038;-94
2022/08/31 02:01:30;;;;;;;9.20;5.10;;;;;;;25.85;45.39;98542.81;5002088;28;20049;-94
2022/08/31 02:03:55;;;;;;;9.45;5.03;;;;;;;25.83;45.13;98543.84;5018266;28;20133;-93
2022/08/31 02:06:21;;;;;;;11.77;5.47;;;;;;;25.80;45.48;98541.63;5034255;28;20033;-94
2022/08/31 02:08:46;;;;;;;9.05;5.47;;;;;;;25.74;45.66;98552.38;5035126;28;20028;-95
2022/08/31 02:11:12;;;;;;;14.77;5.20;;;;;;;25.72;45.76;98538.44;5018518;28;20520;-93
2022/08/31 02:13:38;;;;;;;11.02;5.53;;;;;;;25.67;45.79;98539.09;5036152;28;20091;-93
2022/08/31 02:16:04;;;;;;;9.05;4.93;;;;;;;25.71;45.65;98542.94;5035609;28;20069;-93
2022/08/31 02:18:29;;;;;;;12.43;4.90;;;;;;;25.71;45.68;98548.28;5019908;28;20029;-93
2022/08/31 02:20:55;;;;;;;11.50;5.22;;;;;;;25.70;45.36;98546.66;5017613;28;20033;-91
2022/08/31 02:23:20;;;;;;;12.98;5.32;;;;;;;25.63;45.60;98537.88;5001576;28;20116;-94
2022/08/31 02:25:46;;;;;;;12.40;5.43;;;;;;;25.66;45.36;98545.44;5001258;28;20068;-94
2022/08/31 02:28:12;;;;;;;10.32;5.25;;;;;;;25.69;45.28;98542.34;5018022;28;20029;-94
2022/08/31 02:30:41;;;;;;;10.23;5.45;;;;;;;25.58;45.44;98538.53;5001764;28;20493;-94
2022/08/31 02:33:07;;;;;;;11.85;5.80;;;;;;;25.60;45.05;98538.31;5001451;28;20037;-94
2022/08/31 02:35:33;;;;;;;9.27;5.85;;;;;;;25.62;45.41;98541.59;5017653;28;20481;-93
2022/08/31 02:37:59;;;;;;;9.50;5.10;;;;;;;25.61;44.96;98537.28;5017397;28;20017;-94
2022/08/31 02:40:24;;;;;;;9.57;5.00;;;;;;;25.63;45.17;98544.06;5003421;28;20031;-94
2022/08/31 02:42:50;;;;;;;12.10;5.18;;;;;;;25.67;44.93;98538.28;5001999;28;20459;-94
2022/08/31 02:45:15;;;;;;;10.77;5.15;;;;;;;25.61;44.81;98535.41;5017666;28;20041;-94
2022/08/31 02:47:41;;;;;;;11.15;5.25;;;;;;;25.65;44.97;98527.81;5034984;28;20026;-94
2022/08/31 02:50:07;;;;;;;10.80;5.10;;;;;;;25.66;44.97;98533.94;5000925;28;20130;-94
2022/08/31 02:52:32;;;;;;;10.38;5.20;;;;;;;25.64;44.79;98534.16;5000688;28;20029;-93
2022/08/31 02:54:58;;;;;;;13.60;5.05;;;;;;;25.63;44.91;98535.19;5017325;28;20041;-93
2022/08/31 02:57:23;;;;;;;6.95;4.68;;;;;;;25.67;44.84;98535.59;5033818;28;20404;-93
2022/08/31 02:59:48;;;;;;;10.15;5.03;;;;;;;25.66;44.49;98532.09;5017320;28;20048;-94
2022/08/31 03:02:14;;;;;;;14.82;5.03;;;;;;;25.63;44.88;98536.03;5017405;28;20398;-92
2022/08/31 03:04:40;;;;;;;8.70;5.57;;;;;;;25.61;44.60;98531.94;5016812;28;20049;-92
2022/08/31 03:07:06;;;;;;;10.70;5.38;;;;;;;25.60;44.93;98538.31;5016591;28;20120;-93
2022/08/31 03:09:31;;;;;;;6.70;4.75;;;;;;;25.58;44.78;98538.53;4999815;28;20561;-92
2022/08/31 03:11:58;;;;;;;9.80;5.28;;;;;;;25.57;44.77;98544.09;5017079;28;20033;-94
2022/08/31 03:14:23;;;;;;;13.20;5.70;;;;;;;25.55;44.50;98540.84;5000029;28;20095;-92
2022/08/31 03:16:49;;;;;;;12.88;5.53;;;;;;;25.51;44.76;98540.47;5016536;28;20042;-93
2022/08/31 03:19:14;;;;;;;10.00;5.13;;;;;;;25.51;44.67;98540.47;5017297;28;20032;-94
2022/08/31 03:21:40;;;;;;;10.38;5.32;;;;;;;25.53;44.78;98543.72;5021533;28;20084;-95
2022/08/31 03:24:05;;;;;;;7.60;5.00;;;;;;;25.54;44.72;98541.84;5001315;28;20448;-94
2022/08/31 03:26:31;;;;;;;8.93;4.65;;;;;;;25.55;44.86;98548.84;5016939;28;20075;-94
2022/08/31 03:28:56;;;;;;;8.40;4.80;;;;;;;25.54;44.90;98547.19;5000294;28;20037;-93
2022/08/31 03:31:23;;;;;;;10.98;5.00;;;;;;;25.51;45.19;98550.31;5002252;28;20045;-92
2022/08/31 03:33:48;;;;;;;7.93;5.15;;;;;;;25.46;45.16;98541.09;5020684;28;20048;-85
2022/08/31 03:36:16;;;;;;;7.10;4.95;;;;;;;25.42;45.21;98558.59;5005957;28;20037;-93
2022/08/31 03:38:42;;;;;;;14.30;5.32;;;;;;;25.41;45.20;98554.31;5005260;28;20409;-91
2022/08/31 03:41:07;;;;;;;6.95;5.13;;;;;;;25.36;45.38;98564.81;5005915;28;20048;-91
2022/08/31 03:43:34;;;;;;;7.13;4.90;;;;;;;25.37;45.50;98574.47;5020613;28;20044;-95
2022/08/31 03:46:00;;;;;;;8.38;5.05;;;;;;;25.37;45.50;98577.16;5039055;28;20053;-95
2022/08/31 03:48:25;;;;;;;10.52;5.25;;;;;;;25.37;45.60;98568.31;5028448;28;20037;-93
2022/08/31 03:50:51;;;;;;;9.95;5.10;;;;;;;25.39;45.33;98575.06;5040693;28;20036;-94
2022/08/31 03:53:16;;;;;;;11.02;5.68;;;;;;;25.43;45.21;98580.81;5040803;28;20053;-94
2022/08/31 03:55:42;;;;;;;8.57;5.20;;;;;;;25.44;44.97;98580.59;5007224;28;20030;-94
2022/08/31 03:58:08;;;;;;;11.75;5.40;;;;;;;25.45;45.09;98578.72;5024749;28;20105;-92
2022/08/31 04:00:34;;;;;;;8.63;4.75;;;;;;;25.57;44.89;98589.53;5024323;28;20126;-94
2022/08/31 04:03:00;;;;;;;10.95;5.38;;;;;;;25.66;44.56;98582.06;5009793;28;20508;-93
2022/08/31 04:05:30;;;;;;;9.00;5.30;;;;;;;25.73;44.64;98586.31;5025914;28;20093;-90
2022/08/31 04:07:56;;;;;;;8.35;4.88;;;;;;;25.93;44.15;98587.97;5047600;28;20102;-94
2022/08/31 04:10:22;;;;;;;13.05;5.18;;;;;;;26.17;43.57;98597.03;5043969;28;20033;-95
2022/08/31 04:12:47;;;;;;;8.60;5.32;;;;;;;26.43;43.11;98589.78;5028943;28;20397;-95
2022/08/31 04:15:13;;;;;;;12.02;5.20;;;;;;;26.66;42.57;98589.09;5032116;28;20025;-94
2022/08/31 04:17:39;;;;;;;14.13;5.13;;;;;;;26.89;42.08;98594.56;5046409;28;20033;-94
2022/08/31 04:20:04;;;;;;;12.77;5.00;;;;;;;27.19;41.92;98588.38;5060830;28;20102;-77
2022/08/31 04:22:30;;;;;;;10.20;5.28;;;;;;;27.60;40.90;98592.09;5018248;28;20032;-92
2022/08/31 04:24:55;;;;;;;10.30;5.57;;;;;;;27.96;40.12;98589.47;5039962;28;20135;-93
2022/08/31 04:27:21;;;;;;;13.35;5.30;;;;;;;28.34;39.22;98585.47;5059426;28;20028;-95
2022/08/31 04:29:46;;;;;;;18.90;5.40;;;;;;;28.98;38.32;98603.38;5053940;28;20076;-79
2022/08/31 04:32:12;;;;;;;18.05;5.38;;;;;;;29.82;36.63;98591.94;5051595;28;20028;-87
2022/08/31 04:34:38;;;;;;;10.27;4.63;;;;;;;30.55;35.85;98594.53;5046449;28;20029;-85
2022/08/31 04:37:03;;;;;;;13.27;4.18;;;;;;;31.24;33.98;98592.34;5017885;28;20029;-82
2022/08/31 04:39:29;;;;;;;13.85;4.60;;;;;;;31.98;32.84;98607.78;5051165;28;20033;-84
2022/08/31 04:41:54;;;;;;;24.38;5.68;;;;;;;32.64;31.64;98604.66;5051065;28;20430;-83
2022/08/31 04:44:20;;;;;;;8.90;4.32;;;;;;;33.28;30.57;98602.63;5034045;28;20037;-82
2022/08/31 04:46:45;;;;;;;11.18;4.10;;;;;;;33.89;29.69;98598.31;5034510;28;20044;-83
2022/08/31 04:49:13;;;;;;;10.07;4.00;;;;;;;34.43;28.60;98594.13;5017297;28;20036;-86
2022/08/31 04:51:39;;;;;;;14.52;4.10;;;;;;;34.92;27.62;98589.84;5034337;28;20048;-84
2022/08/31 04:54:06;;;;;;;11.38;4.00;;;;;;;35.39;27.53;98596.56;5034321;28;20389;-81
2022/08/31 04:56:33;;;;;;;14.60;4.20;;;;;;;35.81;26.94;98599.75;5034285;28;20045;-82
2022/08/31 04:59:03;;;;;;;10.17;3.77;;;;;;;36.19;26.71;98597.19;5017683;28;20049;-91
2022/08/31 05:01:35;;;;;;;8.65;3.63;;;;;;;36.55;26.11;98591.34;5018384;28;20055;-86
2022/08/31 05:04:01;;;;;;;10.35;4.10;;;;;;;36.91;26.04;98588.13;5053180;28;20028;-84
2022/08/31 05:06:32;;;;;;;11.63;3.80;;;;;;;37.23;25.70;98595.59;5018596;28;20426;-79
2022/08/31 05:09:06;;;;;;;9.73;3.70;;;;;;;37.61;25.19;98600.94;5002225;28;20098;-78
2022/08/31 05:11:31;;;;;;;15.38;3.80;;;;;;;37.92;24.62;98600.41;5017140;28;20037;-77
2022/08/31 05:13:57;;;;;;;11.43;3.50;;;;;;;38.29;24.24;98604.09;5016911;28;20047;-75
2022/08/31 05:16:23;;;;;;;6.88;3.35;;;;;;;38.66;24.09;98593.28;5017304;28;20115;-76
2022/08/31 05:18:49;;;;;;;8.95;3.40;;;;;;;39.06;22.96;98591.53;5017445;28;20031;-75
2022/08/31 05:21:26;;;;;;;8.45;3.33;;;;;;;39.42;22.69;98587.94;5000847;28;20053;-74
2022/08/31 05:23:52;;;;;;;9.85;3.30;;;;;;;39.79;21.62;98591.41;5017884;28;20024;-76
2022/08/31 05:26:18;;;;;;;8.65;3.42;;;;;;;40.11;21.28;98596.88;5010304;28;20041;-76
2022/08/31 05:28:44;;;;;;;10.07;3.53;;;;;;;40.41;21.38;98595.22;5025982;28;20033;-78
2022/08/31 05:31:10;;;;;;;19.07;3.80;;;;;;;40.80;20.48;98596.25;5039348;28;20036;-78
2022/08/31 05:33:36;;;;;;;13.93;3.50;;;;;;;40.94;20.04;98598.03;5015077;28;20120;-78
2022/08/31 05:36:02;;;;;;;16.55;3.70;;;;;;;41.14;19.99;98594.63;5031561;28;20029;-79
2022/08/31 05:38:27;;;;;;;14.88;3.90;;;;;;;41.35;19.55;98592.06;5008967;28;20103;-79
2022/08/31 05:40:53;;;;;;;15.38;3.70;;;;;;;41.68;19.46;98596.97;5024146;28;20136;-78
2022/08/31 05:43:19;;;;;;;16.67;4.17;;;;;;;41.83;18.96;98594.84;5025522;28;20044;-78
2022/08/31 05:45:45;;;;;;;12.15;3.50;;;;;;;42.08;18.95;98599.44;5015090;28;20044;-80
2022/08/31 05:48:10;;;;;;;17.40;3.20;;;;;;;42.30;18.70;98595.63;5034212;28;20025;-79
2022/08/31 05:50:36;;;;;;;9.50;3.28;;;;;;;42.39;17.86;98584.59;5034250;28;20508;-83
2022/08/31 05:53:03;;;;;;;13.90;3.40;;;;;;;42.59;18.12;98585.81;5017929;28;20049;-78
2022/08/31 05:55:29;;;;;;;13.32;3.53;;;;;;;42.77;17.53;98585.66;5034867;28;20489;-76
2022/08/31 05:57:55;;;;;;;10.48;3.13;;;;;;;42.88;17.26;98580.56;5033700;28;20094;-77
2022/08/31 06:00:20;;;;;;;13.18;3.22;;;;;;;42.81;17.38;98578.34;5034153;28;20480;-78
2022/08/31 06:02:46;;;;;;;15.53;3.27;;;;;;;42.83;17.25;98587.88;5034406;28;20498;-78
2022/08/31 06:05:11;;;;;;;10.07;2.63;;;;;;;42.90;17.41;98579.09;5018010;28;20133;-78
2022/08/31 06:07:37;;;;;;;11.97;3.20;;;;;;;42.90;18.12;98575.53;5010760;28;20041;-78
2022/08/31 06:10:04;;;;;;;15.50;3.20;;;;;;;43.08;17.77;98582.53;5008927;28;20037;-79
2022/08/31 06:12:30;;;;;;;11.85;3.63;;;;;;;43.25;17.88;98576.03;5025715;28;20412;-79
2022/08/31 06:14:56;;;;;;;10.23;3.30;;;;;;;43.36;17.87;98579.16;5026132;28;20055;-79
2022/08/31 06:17:23;;;;;;;10.70;3.20;;;;;;;43.50;17.71;98578.88;5015705;28;20041;-79
2022/08/31 06:19:50;;;;;;;12.27;3.20;;;;;;;43.44;17.44;98575.53;5031171;28;20065;-81
2022/08/31 06:22:16;;;;;;;15.77;3.58;;;;;;;43.29;17.62;98576.97;5015961;28;20116;-77
2022/08/31 06:24:41;;;;;;;12.00;3.50;;;;;;;42.90;18.02;98581.81;5015379;28;20113;-78
2022/08/31 06:27:09;;;;;;;15.43;3.33;;;;;;;43.06;18.22;98579.28;5014864;28;20440;-80
2022/08/31 06:29:34;;;;;;;10.20;3.20;;;;;;;43.29;18.40;98576.19;5015161;28;20029;-80
2022/08/31 06:32:04;;;;;;;12.77;3.00;;;;;;;43.48;17.55;98575.69;5013303;28;20099;-79
2022/08/31 06:34:30;;;;;;;9.27;3.10;;;;;;;43.22;17.74;98573.97;4997879;28;20033;-80
2022/08/31 06:36:55;;;;;;;13.03;3.20;;;;;;;42.54;18.24;98582.41;4997190;28;20051;-78
2022/08/31 06:39:22;;;;;;;10.90;3.50;;;;;;;42.29;18.60;98585.00;5030264;28;20408;-77
2022/08/31 06:41:51;;;;;;;16.53;3.20;;;;;;;42.75;18.24;98574.22;5031319;28;20033;-78
2022/08/31 06:44:19;;;;;;;13.80;3.58;;;;;;;43.04;17.65;98580.78;4999293;28;20308;-79
2022/08/31 06:46:45;;;;;;;23.90;3.75;;;;;;;43.27;17.62;98575.69;4999392;28;20040;-78
2022/08/31 06:49:11;;;;;;;15.37;4.00;;;;;;;43.31;17.34;98574.69;5031989;28;20025;-77
2022/08/31 06:51:37;;;;;;;16.05;3.50;;;;;;;43.52;17.17;98577.41;5016449;28;20041;-77
2022/08/31 06:54:07;;;;;;;23.77;4.33;;;;;;;43.69;16.74;98584.63;5015610;28;20044;-78
2022/08/31 06:56:33;;;;;;;13.50;3.90;;;;;;;43.66;16.69;98590.81;5032841;28;20031;-79
2022/08/31 06:59:00;;;;;;;18.15;4.18;;;;;;;43.58;16.84;98583.47;5015775;28;20095;-77
2022/08/31 07:01:29;;;;;;;14.40;3.80;;;;;;;43.61;16.92;98584.75;5015626;28;20119;-80
2022/08/31 07:03:55;;;;;;;14.98;3.97;;;;;;;43.63;16.93;98577.75;5016344;28;20052;-77
2022/08/31 07:06:23;;;;;;;14.27;3.63;;;;;;;43.71;16.58;98579.63;5015839;28;20026;-79
2022/08/31 07:08:51;;;;;;;12.95;3.85;;;;;;;43.78;16.60;98581.78;5015241;28;20500;-79
2022/08/31 07:11:20;;;;;;;10.50;3.42;;;;;;;43.83;17.04;98576.09;5015165;28;20416;-78
2022/08/31 07:13:46;;;;;;;10.88;3.97;;;;;;;43.94;16.98;98581.94;5031808;28;20025;-77
2022/08/31 07:16:13;;;;;;;9.98;3.55;;;;;;;43.90;16.71;98572.78;4998056;28;20125;-78
2022/08/31 07:18:39;;;;;;;20.98;3.78;;;;;;;43.93;17.02;98569.34;5015315;28;20029;-78
2022/08/31 07:21:17;;;;;;;11.18;3.88;;;;;;;44.06;17.14;98570.94;5015472;28;20471;-77
2022/08/31 07:23:43;;;;;;;15.57;3.60;;;;;;;44.15;16.60;98575.53;5032605;28;20033;-78
2022/08/31 07:26:15;;;;;;;14.53;3.67;;;;;;;44.22;16.61;98573.84;5015086;28;20485;-78
2022/08/31 07:28:44;;;;;;;10.77;3.15;;;;;;;44.31;16.14;98581.94;4999119;28;20025;-79
2022/08/31 07:31:10;;;;;;;14.55;3.25;;;;;;;44.34;16.96;98574.97;4999475;28;20029;-79
2022/08/31 07:33:40;;;;;;;13.73;3.15;;;;;;;44.37;16.14;98572.31;5031282;28;20028;-77
2022/08/31 07:36:13;;;;;;;9.18;2.90;;;;;;;44.43;16.29;98570.13;5015895;28;20040;-79
2022/08/31 07:44:07;;;;;;;9.18;2.90;;;;;;;44.64;17.08;98575.50;5017675;28;20044;-80
2022/08/31 07:46:34;;;;;;;8.00;2.73;;;;;;;44.69;16.71;98566.19;5014895;28;20112;-78
2022/08/31 07:49:00;;;;;;;10.48;3.05;;;;;;;44.79;16.73;98560.22;5031343;28;20508;-78
2022/08/31 07:51:25;;;;;;;10.53;2.90;;;;;;;44.87;16.51;98570.25;5014710;28;20033;-79
2022/08/31 07:53:52;;;;;;;14.83;3.50;;;;;;;44.86;16.48;98565.09;4998502;28;20045;-78
2022/08/31 07:56:19;;;;;;;13.60;3.80;;;;;;;44.90;16.52;98566.00;5015020;28;20071;-79
2022/08/31 07:58:46;;;;;;;16.70;3.92;;;;;;;44.93;15.90;98557.84;5015097;28;20034;-78
2022/08/31 08:01:13;;;;;;;13.85;3.60;;;;;;;44.99;16.04;98555.66;5015091;28;20052;-79
2022/08/31 08:03:42;;;;;;;8.63;3.75;;;;;;;44.97;16.05;98557.94;5015247;28;20032;-79
2022/08/31 08:06:13;;;;;;;15.98;3.83;;;;;;;44.87;15.92;98558.47;5030966;28;20032;-80
2022/08/31 08:08:41;;;;;;;13.75;3.85;;;;;;;44.90;15.91;98557.72;5007679;28;20520;-78
2022/08/31 08:11:07;;;;;;;16.90;3.60;;;;;;;44.87;16.01;98550.19;5047655;28;20034;-78
2022/08/31 08:13:32;;;;;;;15.90;3.80;;;;;;;44.87;16.33;98550.19;5014770;28;20374;-77
2022/08/31 08:15:58;;;;;;;14.63;3.80;;;;;;;44.86;16.51;98554.88;4998178;28;20029;-79
2022/08/31 08:18:23;;;;;;;9.90;3.80;;;;;;;44.89;16.22;98558.91;5014616;28;20455;-79
2022/08/31 08:20:51;;;;;;;15.93;4.07;;;;;;;44.87;16.54;98550.19;5030611;28;20405;-79
2022/08/31 08:23:18;;;;;;;12.40;3.80;;;;;;;44.91;16.45;98553.84;5013886;28;20033;-78
2022/08/31 08:25:44;;;;;;;11.20;3.85;;;;;;;44.86;16.30;98552.13;5014660;28;20040;-80
2022/08/31 08:28:16;;;;;;;12.90;3.55;;;;;;;44.91;16.64;98553.84;5014364;28;20069;-79
2022/08/31 08:30:43;;;;;;;13.00;3.90;;;;;;;44.92;16.10;98544.44;5032817;28;20041;-79
2022/08/31 08:33:09;;;;;;;13.43;3.65;;;;;;;44.86;16.14;98557.63;5014292;28;20033;-77
2022/08/31 08:35:34;;;;;;;12.13;3.70;;;;;;;44.88;15.99;98543.53;5014558;28;20040;-79
2022/08/31 08:38:01;;;;;;;10.43;3.40;;;;;;;44.85;15.83;98544.22;5014248;28;20076;-77
2022/08/31 08:40:42;;;;;;;19.60;4.07;;;;;;;44.82;15.87;98545.75;5016397;28;20065;-78
2022/08/31 08:43:09;;;;;;;9.60;3.50;;;;;;;44.78;16.06;98539.31;5018710;28;20099;-79
2022/08/31 08:45:35;;;;;;;13.13;3.58;;;;;;;44.75;16.40;98540.81;5034096;28;20048;-78
2022/08/31 08:48:01;;;;;;;11.03;3.23;;;;;;;44.70;15.83;98535.56;5001813;28;20089;-79
2022/08/31 08:50:27;;;;;;;11.67;3.40;;;;;;;44.63;16.13;98535.38;5001683;28;20056;-82
2022/08/31 08:52:55;;;;;;;14.70;3.50;;;;;;;44.52;16.28;98528.72;5018022;28;20467;-78
2022/08/31 08:55:23;;;;;;;9.77;3.83;;;;;;;44.50;17.00;98531.03;5034402;28;20034;-78
2022/08/31 08:57:51;;;;;;;13.50;3.60;;;;;;;44.47;16.83;98529.75;5034542;28;20037;-80
2022/08/31 09:00:23;;;;;;;11.90;3.20;;;;;;;44.43;17.10;98515.91;5001189;28;20052;-80
2022/08/31 09:02:57;;;;;;;9.32;3.40;;;;;;;44.42;16.77;98519.81;5018314;28;20025;-79
2022/08/31 09:06:00;;;;;;;10.05;3.22;;;;;;;44.32;16.62;98517.53;5018156;28;20491;-78
2022/08/31 09:08:49;;;;;;;10.95;3.67;;;;;;;44.27;16.94;98517.78;5051847;28;20100;-79
2022/08/31 09:11:45;;;;;;;9.88;3.25;;;;;;;44.14;17.09;98507.91;5040049;28;20039;-78
2022/08/31 09:14:35;;;;;;;12.55;3.33;;;;;;;43.71;17.19;98499.09;5050393;28;20037;-78
2022/08/31 09:17:08;;;;;;;15.25;3.70;;;;;;;43.71;17.16;98493.59;5054072;28;20412;-80
2022/08/31 09:19:57;;;;;;;16.48;3.17;;;;;;;43.67;17.19;98487.22;5037159;28;20484;-80
2022/08/31 09:22:19;;;;;;;5.90;2.90;;;;;;;43.26;18.09;98492.50;5019846;28;20033;-78
2022/08/31 09:24:50;;;;;;;8.13;2.87;;;;;;;42.91;18.04;98494.81;5040421;28;20385;-83
2022/08/31 09:29:45;;;;;;;8.87;3.10;;;;;;;42.17;18.83;98478.75;5034263;28;20031;-76
2022/08/31 09:32:22;;;;;;;9.13;3.58;;;;;;;42.01;19.02;98475.78;5028085;28;20405;-79
2022/08/31 09:35:00;;;;;;;12.68;3.47;;;;;;;41.85;19.36;98472.81;5044158;28;20108;-79
2022/08/31 09:37:32;;;;;;;11.13;3.40;;;;;;;41.61;19.93;98481.63;5026006;28;20484;-76
2022/08/31 09:40:13;;;;;;;10.70;3.42;;;;;;;41.52;19.21;98489.06;5040413;28;20048;-76
2022/08/31 09:42:38;;;;;;;12.27;3.58;;;;;;;41.40;20.54;98485.09;5032282;28;20017;-75
2022/08/31 09:45:11;;;;;;;13.75;3.70;;;;;;;41.16;19.84;98484.81;5027153;28;20033;-76
2022/08/31 09:47:54;;;;;;;9.95;3.60;;;;;;;41.00;19.54;98487.25;5039707;28;20025;-76
2022/08/31 09:50:45;;;;;;;17.35;3.55;;;;;;;40.63;19.66;98481.34;5024227;28;20026;-74
2022/08/31 09:56:16;;;;;;;16.83;3.58;;;;;;;40.76;19.74;98483.09;5042927;28;20113;-73
2022/08/31 09:58:42;;;;;;;10.05;3.47;;;;;;;40.65;19.64;98476.34;5058643;28;20036;-76
2022/08/31 10:01:12;;;;;;;11.77;3.20;;;;;;;40.55;19.42;98472.00;5040786;28;20076;-76
2022/08/31 10:03:43;;;;;;;18.02;3.60;;;;;;;40.11;20.34;98463.75;5009993;28;20033;-75
2022/08/31 10:06:25;;;;;;;15.32;3.67;;;;;;;40.25;20.23;98473.72;5050894;28;20036;-73
2022/08/31 10:08:56;;;;;;;12.05;3.50;;;;;;;40.24;20.55;98459.25;5030983;28;20026;-76
2022/08/31 10:11:22;;;;;;;11.70;3.38;;;;;;;40.11;20.62;98462.94;5008639;28;20516;-75
2022/08/31 10:13:55;;;;;;;12.90;3.77;;;;;;;40.09;20.54;98448.78;5026574;28;20462;-76
2022/08/31 10:16:24;;;;;;;10.75;3.38;;;;;;;39.96;20.88;98448.59;5020688;28;20021;-75
2022/08/31 10:18:54;;;;;;;10.75;3.42;;;;;;;39.79;21.13;98445.81;5033727;28;20508;-75
2022/08/31 10:21:28;;;;;;;13.50;4.20;;;;;;;39.86;21.93;98439.88;5032454;28;20021;-74
2022/08/31 10:24:09;;;;;;;17.33;4.20;;;;;;;39.86;22.39;98428.94;5001887;28;20091;-77
2022/08/31 10:26:41;;;;;;;12.65;3.50;;;;;;;39.86;21.90;98428.94;5015929;28;20511;-78
2022/08/31 10:29:17;;;;;;;15.40;4.00;;;;;;;39.84;22.21;98423.81;5032005;28;20029;-75
2022/08/31 10:31:45;;;;;;;10.65;3.65;;;;;;;39.84;21.99;98426.53;5000015;28;20032;-75
2022/08/31 10:37:08;;;;;;;11.23;4.03;;;;;;;39.79;21.70;98419.28;5032522;28;20036;-74
2022/08/31 10:39:40;;;;;;;16.75;3.50;;;;;;;39.64;21.37;98411.53;5000020;28;20477;-76
2022/08/31 10:42:08;;;;;;;15.30;3.83;;;;;;;39.61;21.38;98410.22;4999838;28;20091;-75
2022/08/31 10:44:41;;;;;;;11.88;3.60;;;;;;;39.43;21.79;98414.81;5015705;28;20135;-75
2022/08/31 10:47:06;;;;;;;11.07;3.63;;;;;;;39.48;21.73;98413.06;5016414;28;20029;-77
2022/08/31 10:49:37;;;;;;;9.88;4.20;;;;;;;39.19;21.72;98407.03;4999017;28;20034;-75
2022/08/31 10:52:16;;;;;;;19.52;3.83;;;;;;;39.05;21.74;98412.53;5016474;28;20033;-75
2022/08/31 10:54:46;;;;;;;10.98;3.45;;;;;;;39.05;22.00;98412.53;5016233;28;20034;-74
2022/08/31 10:57:45;;;;;;;18.52;4.13;;;;;;;38.96;21.75;98408.97;5031817;28;20053;-76
2022/08/31 11:03:21;;;;;;;11.25;3.70;;;;;;;38.84;21.59;98408.72;4990939;28;20101;-76
2022/08/31 11:06:14;;;;;;;13.77;3.50;;;;;;;38.68;22.36;98428.22;4991304;28;20042;-78
2022/08/31 11:08:57;;;;;;;11.60;3.75;;;;;;;38.46;22.59;98417.25;5007367;28;20125;-75
2022/08/31 11:11:46;;;;;;;8.65;3.20;;;;;;;38.05;23.34;98434.53;4993835;28;20041;-76
2022/08/31 11:14:32;;;;;;;15.07;3.78;;;;;;;37.70;23.87;98450.50;4913574;29;20032;-74
2022/08/31 11:17:17;;;;;;;16.40;3.80;;;;;;;37.22;25.51;98500.63;4913955;29;20507;-78
2022/08/31 11:19:49;;;;;;;27.40;3.65;;;;;;;36.70;27.92;98508.75;4913947;29;20067;-79
2022/08/31 11:22:38;;;;;;;13.75;3.90;;;;;;;35.89;29.14;98514.16;4914390;29;20028;-78
2022/08/31 11:25:25;;;;;;;19.35;4.15;;;;;;;34.98;30.70;98491.06;4901344;29;20051;-79
2022/08/31 11:27:57;;;;;;;9.52;4.05;;;;;;;34.30;32.11;98503.44;4897689;29;20032;-78
2022/08/31 11:30:26;;;;;;;17.90;4.47;;;;;;;33.76;33.04;98504.13;4912749;29;20100;-77
2022/08/31 11:32:58;;;;;;;18.85;4.30;;;;;;;33.28;33.71;98482.81;4928875;29;20062;-78
2022/08/31 11:36:07;;;;;;;11.95;4.47;;;;;;;32.81;34.87;98480.09;4913958;29;20028;-77
2022/08/31 11:38:39;;;;;;;10.95;3.97;;;;;;;32.51;35.60;98480.03;4898468;29;20091;-78
2022/08/31 11:41:04;;;;;;;16.63;4.50;;;;;;;32.25;36.53;98475.38;4913888;29;20043;-76
2022/08/31 11:43:30;;;;;;;15.15;4.50;;;;;;;31.97;36.97;98467.69;4882415;29;20131;-77
2022/08/31 11:46:00;;;;;;;10.65;4.43;;;;;;;31.86;37.71;98483.81;4913975;29;20441;-77
2022/08/31 11:49:09;;;;;;;12.77;4.25;;;;;;;31.70;37.79;98474.81;4883508;29;20428;-79
2022/08/31 11:51:41;;;;;;;13.48;5.03;;;;;;;31.59;38.46;98467.75;4960910;28;20042;-79
2022/08/31 11:54:36;;;;;;;15.93;4.50;;;;;;;31.46;39.27;98468.19;4990438;28;20047;-79
2022/08/31 11:57:04;;;;;;;10.95;4.32;;;;;;;31.35;39.33;98475.41;4970335;28;20035;-82